Time;durP1;ratioP1;P1;durP2;ratioP2;P2;SDS_P1;SDS_P2;PMS_P1;PMS_P2;Temp;Humidity;BMP_temperature;BMP_pressure;BME280_temperature;BME280_humidity;BME280_pressure;Samples;Min_cycle;Max_cycle;Signal;HPM_P1;HPM_P2
2023/01/30 00:00:12;;;;;;;;;;;;;;;;;;5028095;28;19948;-81
2023/01/30 00:02:38;;;;;;;;;;;;;;;;;;5028262;28;19925;-81
2023/01/30 00:05:04;;;;;;;;;;;;;;;;;;5025901;28;20022;-81
2023/01/30 00:07:30;;;;;;;;;;;;;;;;;;5023038;28;19920;-81
2023/01/30 00:09:56;;;;;;;;;;;;;;;;;;5021601;28;19920;-81
2023/01/30 00:12:22;;;;;;;;;;;;;;;;;;5019688;28;20399;-80
2023/01/30 00:14:47;;;;;;;;;;;;;;;;;;5020149;28;19909;-81
2023/01/30 00:17:13;;;;;;;;;;;;;;;;;;5017297;28;19909;-81
2023/01/30 00:19:39;;;;;;;;;;;;;;;;;;5022246;28;19931;-82
2023/01/30 00:22:05;;;;;;;;;;;;;;;;;;5024188;28;19921;-82
2023/01/30 00:24:31;;;;;;;;;;;;;;;;;;5019194;28;19917;-80
2023/01/30 00:26:57;;;;;;;14.30;6.78;;;;;;;;;;5019885;28;20032;-81
2023/01/30 00:29:23;;;;;;;8.63;5.53;;;;;;;;;;5012428;28;20117;-82
2023/01/30 00:31:49;;;;;;;;;;;;;;;;;;5017028;28;20078;-81
2023/01/30 00:34:15;;;;;;;;;;;;;;;;;;5018467;28;20355;-80
2023/01/30 00:36:41;;;;;;;;;;;;;;;;;;5021540;28;19913;-80
2023/01/30 00:39:07;;;;;;;;;;;;;;;;;;5019781;28;20014;-83
2023/01/30 00:47:04;;;;;;;;;;;0.40;99.90;;;;;;5015622;28;19984;-81
2023/01/30 00:49:30;;;;;;;;;;;;;;;;;;5019366;28;21256;-79
2023/01/30 00:51:55;;;;;;;;;;;;;;;;;;5018532;28;19917;-81
2023/01/30 00:54:21;;;;;;;;;;;;;;;;;;5022798;28;19974;-81
2023/01/30 00:56:47;;;;;;;;;;;;;;;;;;5026993;28;19909;-81
2023/01/30 00:59:13;;;;;;;;;;;;;;;;;;5019632;28;19917;-82
2023/01/30 01:01:38;;;;;;;;;;;-0.70;99.90;;;;;;5017358;28;19924;-82
2023/01/30 01:04:05;;;;;;;;;;;;;;;;;;5020891;28;19909;-81
2023/01/30 01:06:31;;;;;;;;;;;;;;;;;;5023412;28;19917;-81
2023/01/30 01:08:57;;;;;;;;;;;;;;;;;;5019413;28;20010;-81
2023/01/30 01:11:23;;;;;;;;;;;;;;;;;;5024149;28;20388;-81
2023/01/30 01:13:49;;;;;;;;;;;;;;;;;;5030738;28;20059;-81
2023/01/30 01:16:14;;;;;;;;;;;;;;;;;;5018975;28;19909;-81
2023/01/30 01:18:40;;;;;;;;;;;;;;;;;;5020396;28;20040;-80
2023/01/30 01:21:06;;;;;;;;;;;;;;;;;;5016779;28;19909;-81
2023/01/30 01:23:32;;;;;;;;;;;;;;;;;;5018885;28;20007;-80
2023/01/30 01:25:58;;;;;;;;;;;;;;;;;;5021588;28;19917;-80
2023/01/30 01:28:24;;;;;;;;;;;;;;;;;;5020044;28;19909;-80
2023/01/30 01:30:50;;;;;;;;;;;;;;;;;;5018313;28;19966;-82
2023/01/30 01:33:16;;;;;;;;;;;;;;;;;;5021801;28;19909;-82
2023/01/30 01:35:41;;;;;;;;;;;;;;;;;;5018599;28;19965;-82
2023/01/30 01:38:07;;;;;;;;;;;0.10;99.90;;;;;;5023715;28;20365;-81
2023/01/30 01:43:17;;;;;;;;;;;;;;;;;;5018848;28;19924;-80
2023/01/30 01:45:43;;;;;;;;;;;;;;;;;;5017102;28;19917;-82
2023/01/30 01:48:11;;;;;;;;;;;0.20;99.90;;;;;;5021782;28;20438;-82
2023/01/30 01:50:38;;;;;;;;;;;;;;;;;;5017364;28;19990;-81
2023/01/30 01:53:04;;;;;;;;;;;;;;;;;;5018381;28;19916;-81
2023/01/30 01:55:29;;;;;;;;;;;;;;;;;;5016776;28;20382;-82
2023/01/30 01:58:08;;;;;;;;;;;0.50;99.90;;;;;;5018097;28;20014;-81
2023/01/30 02:00:34;;;;;;;;;;;;;;;;;;5013527;28;19917;-81
2023/01/30 02:03:00;;;;;;;;;;;;;;;;;;5018333;28;19923;-81
2023/01/30 02:05:26;;;;;;;;;;;;;;;;;;5026478;28;19924;-81
2023/01/30 02:07:51;;;;;;;;;;;;;;;;;;5021133;28;19960;-82
2023/01/30 02:10:17;;;;;;;;;;;;;;;;;;5017032;28;19916;-80
2023/01/30 02:12:43;;;;;;;;;;;;;;;;;;5016714;28;19912;-81
2023/01/30 02:15:09;;;;;;;;;;;;;;;;;;5018789;28;20349;-81
2023/01/30 02:17:35;;;;;;;;;;;;;;;;;;5021036;28;20007;-80
2023/01/30 02:20:01;;;;;;;;;;;;;;;;;;5020351;28;19924;-81
2023/01/30 02:22:45;;;;;;;16.20;6.45;;;;;;;;;;5014580;28;19925;-81
2023/01/30 02:25:23;;;;;;;12.70;7.03;;;;;;;;;;5023544;28;20429;-82
2023/01/30 02:27:55;;;;;;;14.18;8.43;;;;;;;;;;5019862;28;20030;-81
2023/01/30 02:30:21;;;;;;;12.48;5.30;;;;;;;;;;5023464;28;20461;-82
2023/01/30 02:33:06;;;;;;;13.80;7.20;;;;;;;;;;5021065;28;20049;-81
2023/01/30 02:35:48;;;;;;;13.95;6.97;;;;;;;;;;5014348;28;20033;-82
2023/01/30 02:38:17;;;;;;;12.63;6.20;;;;;;;;;;5016863;28;20026;-81
2023/01/30 02:40:49;;;;;;;14.80;7.20;;;;;;;;;;5012982;28;20029;-82
2023/01/30 02:43:15;;;;;;;10.73;4.93;;;;;;;;;;5019263;28;20045;-82
2023/01/30 02:45:45;;;;;;;10.90;5.85;;;;;;;;;;5012607;28;20036;-82
2023/01/30 02:48:13;;;;;;;15.70;7.85;;;;;;;;;;5018232;28;20037;-82
2023/01/30 02:50:42;;;;;;;17.77;7.50;;;;;;;;;;5020051;28;20025;-82
2023/01/30 02:53:08;;;;;;;15.85;6.43;;;;;;;;;;5025329;28;20440;-81
2023/01/30 02:55:35;;;;;;;20.65;7.78;;;;;;;;;;5023331;28;20128;-81
2023/01/30 02:58:03;;;;;;;10.32;5.53;;;;;;;;;;5023830;28;20026;-81
2023/01/30 03:00:28;;;;;;;16.90;5.68;;;;;;;;;;5022528;28;20081;-81
2023/01/30 03:03:09;;;;;;;14.73;7.80;;;;;;;;;;5017869;28;20179;-82
2023/01/30 03:05:35;;;;;;;11.85;6.45;;;;;;;;;;5024386;28;20494;-82
2023/01/30 03:08:10;;;;;;;14.02;6.18;;;;;;;;;;5024712;28;20048;-82
2023/01/30 03:10:54;;;;;;;11.60;6.43;;;;;;;;;;5021754;28;20087;-81
2023/01/30 03:13:35;;;;;;;14.00;5.35;;;;;;;;;;5024555;28;20049;-81
2023/01/30 03:16:20;;;;;;;7.43;5.45;;;-0.50;99.90;;;;;;5022446;28;20044;-81
2023/01/30 03:18:47;;;;;;;13.63;5.68;;;;;;;;;;5025360;28;20059;-82
2023/01/30 03:21:13;;;;;;;19.10;7.65;;;;;;;;;;5023957;28;20079;-82
2023/01/30 03:23:39;;;;;;;15.93;7.00;;;;;;;;;;5022694;28;20171;-82
2023/01/30 03:26:06;;;;;;;15.45;6.47;;;;;;;;;;5023699;28;20105;-81
2023/01/30 03:28:33;;;;;;;11.30;7.40;;;;;;;;;;5017609;28;20033;-80
2023/01/30 03:30:59;;;;;;;14.38;7.00;;;;;;;;;;5022923;28;20059;-80
2023/01/30 03:33:25;;;;;;;8.63;5.00;;;;;;;;;;5017772;28;20075;-80
2023/01/30 03:35:51;;;;;;;13.23;6.38;;;;;;;;;;5023282;28;20393;-81
2023/01/30 03:38:17;;;;;;;13.02;5.43;;;;;;;;;;5022215;28;20119;-81
2023/01/30 03:40:43;;;;;;;12.48;6.80;;;;;;;;;;5019810;28;20112;-81
2023/01/30 03:43:09;;;;;;;9.38;4.75;;;;;;;;;;5016744;28;20041;-81
2023/01/30 03:45:36;;;;;;;14.98;6.03;;;;;;;;;;5015129;28;20052;-82
2023/01/30 03:48:01;;;;;;;14.93;6.65;;;;;;;;;;5022266;28;20029;-82
2023/01/30 03:50:28;;;;;;;9.38;5.00;;;;;;;;;;5026531;28;20032;-81
2023/01/30 03:52:54;;;;;;;16.52;7.93;;;;;;;;;;5020037;28;20037;-80
2023/01/30 03:55:20;;;;;;;9.90;5.88;;;;;;;;;;5024817;28;20082;-81
2023/01/30 03:57:46;;;;;;;10.52;5.25;;;;;;;;;;5021103;28;20148;-80
2023/01/30 04:00:12;;;;;;;9.07;5.57;;;;;;;;;;5020409;28;20036;-81
2023/01/30 04:02:38;;;;;;;12.70;5.40;;;;;;;;;;5021559;28;20171;-80
2023/01/30 04:05:05;;;;;;;13.57;6.03;;;;;;;;;;5022248;28;20097;-82
2023/01/30 04:07:31;;;;;;;13.82;6.38;;;;;;;;;;5018614;28;20041;-80
2023/01/30 04:09:57;;;;;;;9.95;4.68;;;;;;;;;;5022174;28;20500;-81
2023/01/30 04:12:23;;;;;;;11.38;5.07;;;;;;;;;;5017503;28;20133;-82
2023/01/30 04:14:49;;;;;;;11.70;6.15;;;;;;;;;;5021470;28;20022;-82
2023/01/30 04:17:14;;;;;;;9.82;5.82;;;;;;;;;;5016003;28;20116;-80
2023/01/30 04:19:40;;;;;;;15.43;7.47;;;;;;;;;;5023535;28;20136;-80
2023/01/30 04:22:06;;;;;;;10.40;5.05;;;;;;;;;;5012845;28;20037;-80
2023/01/30 04:24:32;;;;;;;11.27;5.30;;;;;;;;;;5023139;28;20029;-81
2023/01/30 04:26:58;;;;;;;10.40;5.53;;;;;;;;;;5027225;28;20189;-80
2023/01/30 04:29:24;;;;;;;12.88;6.05;;;;;;;;;;5022217;28;20010;-80
2023/01/30 04:31:50;;;;;;;10.73;4.10;;;;;;;;;;5020668;28;20033;-81
2023/01/30 04:34:16;;;;;;;12.88;6.72;;;;;;;;;;5014075;28;20525;-80
2023/01/30 04:36:42;;;;;;;11.13;5.40;;;;;;;;;;5018742;28;20677;-80
2023/01/30 04:39:08;;;;;;;11.68;6.05;;;;;;;;;;5019037;28;20021;-80
2023/01/30 04:41:34;;;;;;;11.25;6.07;;;;;;;;;;5021443;28;20029;-81
2023/01/30 04:44:00;;;;;;;10.68;5.50;;;;;;;;;;5022658;28;20512;-80
2023/01/30 04:46:26;;;;;;;14.52;6.25;;;;;;;;;;5017529;28;20029;-80
2023/01/30 04:48:52;;;;;;;11.70;5.90;;;;;;;;;;5014891;28;20037;-82
2023/01/30 04:51:18;;;;;;;12.30;5.72;;;;;;;;;;5018933;28;20029;-82
2023/01/30 04:53:43;;;;;;;16.10;6.70;;;;;;;;;;5014208;28;20493;-80
2023/01/30 04:56:09;;;;;;;9.52;4.45;;;;;;;;;;5021411;28;20509;-80
2023/01/30 04:58:35;;;;;;;9.65;5.82;;;;;;;;;;5017756;28;20021;-83
2023/01/30 05:01:13;;;;;;;10.50;5.47;;;;;;;;;;5013675;28;21914;-79
2023/01/30 05:03:39;;;;;;;12.93;5.90;;;;;;;;;;5008109;28;20511;-80
2023/01/30 05:06:06;;;;;;;9.73;5.00;;;;;;;;;;5017124;28;20114;-81
2023/01/30 05:08:31;;;;;;;10.45;5.18;;;;;;;;;;5012805;28;20052;-80
2023/01/30 05:10:57;;;;;;;12.60;6.45;;;;;;;;;;5021406;28;20121;-82
2023/01/30 05:13:23;;;;;;;12.07;5.82;;;;;;;;;;5026502;28;20505;-83
2023/01/30 05:15:49;;;;;;;23.98;5.40;;;;;;;;;;5020183;28;20108;-81
2023/01/30 05:18:15;;;;;;;8.27;4.82;;;;;;;;;;5012033;28;20041;-79
2023/01/30 05:20:41;;;;;;;12.55;4.75;;;;;;;;;;5015558;28;20473;-81
2023/01/30 05:23:07;;;;;;;11.73;6.78;;;;;;;;;;5016841;28;20509;-79
2023/01/30 05:25:33;;;;;;;7.85;5.10;;;;;;;;;;5022768;28;20033;-81
2023/01/30 05:27:59;;;;;;;10.30;5.47;;;;;;;;;;5011445;28;20152;-80
2023/01/30 05:30:25;;;;;;;13.82;6.15;;;;;;;;;;5013097;28;20033;-82
2023/01/30 05:32:51;;;;;;;9.98;4.75;;;;;;;;;;5010920;28;20021;-80
2023/01/30 05:35:17;;;;;;;13.80;6.07;;;;;;;;;;5014262;28;20091;-78
2023/01/30 05:37:43;;;;;;;12.10;5.25;;;;;;;;;;5016088;28;20025;-80
2023/01/30 05:40:09;;;;;;;9.50;4.65;;;;;;;;;;5020249;28;20558;-79
2023/01/30 05:42:35;;;;;;;11.00;5.63;;;;;;;;;;5015214;28;20992;-81
2023/01/30 05:45:01;;;;;;;9.07;5.45;;;;;;;;;;5028127;28;20477;-80
2023/01/30 05:47:27;;;;;;;11.30;5.55;;;;;;;;;;5021579;28;20025;-82
2023/01/30 05:49:53;;;;;;;11.57;5.22;;;;;;;;;;5016507;28;20032;-81
2023/01/30 05:52:19;;;;;;;10.88;5.70;;;;;;;;;;5022601;28;20033;-79
2023/01/30 05:54:45;;;;;;;12.05;6.10;;;;;;;;;;5015012;28;20030;-79
2023/01/30 05:57:12;;;;;;;15.27;6.65;;;;;;;;;;5025790;28;20103;-82
2023/01/30 05:59:38;;;;;;;15.57;5.85;;;;;;;;;;5023996;28;20024;-80
2023/01/30 06:02:04;;;;;;;13.00;6.40;;;;;;;;;;5022621;28;20216;-82
2023/01/30 06:04:30;;;;;;;11.23;5.28;;;;;;;;;;5025664;28;20389;-81
2023/01/30 06:06:56;;;;;;;14.10;6.20;;;;;;;;;;5021321;28;20444;-79
2023/01/30 06:09:22;;;;;;;9.05;5.55;;;;;;;;;;5022589;28;20038;-81
2023/01/30 06:11:48;;;;;;;20.13;6.80;;;;;;;;;;5022940;28;20029;-82
2023/01/30 06:14:14;;;;;;;11.98;5.20;;;;;;;;;;5018890;28;20084;-80
2023/01/30 06:16:39;;;;;;;11.40;6.85;;;;;;;;;;5013884;28;20025;-79
2023/01/30 06:19:05;;;;;;;6.75;4.65;;;;;;;;;;5019592;28;20505;-81
2023/01/30 06:21:31;;;;;;;8.00;4.65;;;;;;;;;;5013685;28;20056;-81
2023/01/30 06:23:57;;;;;;;15.43;6.45;;;;;;;;;;5024095;28;20124;-81
2023/01/30 06:26:23;;;;;;;7.25;4.60;;;;;;;;;;5024316;28;20470;-79
2023/01/30 06:28:49;;;;;;;12.68;5.65;;;;;;;;;;5024089;28;20025;-81
2023/01/30 06:31:17;;;;;;;12.30;6.22;;;;;;;;;;5021612;28;20065;-82
2023/01/30 06:33:43;;;;;;;10.85;5.43;;;;;;;;;;5033491;28;20021;-81
2023/01/30 06:36:09;;;;;;;17.88;5.88;;;;;;;;;;5025837;28;20028;-81
2023/01/30 06:38:35;;;;;;;12.88;6.28;;;;;;;;;;5027258;28;20029;-79
2023/01/30 06:41:01;;;;;;;15.98;7.88;;;;;;;;;;5029303;28;20041;-81
2023/01/30 06:43:27;;;;;;;9.07;5.78;;;;;;;;;;5028629;28;20042;-82
2023/01/30 06:45:53;;;;;;;9.93;5.80;;;;;;;;;;5029638;28;20029;-80
2023/01/30 06:48:19;;;;;;;11.32;4.88;;;;;;;;;;5028870;28;20033;-79
2023/01/30 06:50:46;;;;;;;8.98;4.82;;;;;;;;;;5031254;28;20028;-82
2023/01/30 06:53:12;;;;;;;9.55;4.68;;;;;;;;;;5023639;28;20417;-80
2023/01/30 06:55:38;;;;;;;9.32;5.32;;;;;;;;;;5023663;28;20026;-81
2023/01/30 06:58:05;;;;;;;12.65;6.70;;;;;;;;;;5029234;28;20057;-81
2023/01/30 07:00:31;;;;;;;12.63;5.38;;;;;;;;;;5023639;28;20029;-81
2023/01/30 07:02:57;;;;;;;9.65;5.35;;;;;;;;;;5027865;28;20037;-78
2023/01/30 07:05:23;;;;;;;12.93;6.72;;;;;;;;;;5025906;28;20542;-80
2023/01/30 07:07:49;;;;;;;8.70;4.85;;;;;;;;;;5028229;28;20034;-80
2023/01/30 07:10:15;;;;;;;7.75;4.65;;;;;;;;;;5027874;28;20037;-82
2023/01/30 07:12:41;;;;;;;9.98;6.05;;;;;;;;;;5029804;28;20030;-79
2023/01/30 07:15:07;;;;;;;14.77;6.90;;;;;;;;;;5029880;28;20032;-80
2023/01/30 07:17:33;;;;;;;13.52;5.47;;;;;;;;;;5031312;28;20107;-80
2023/01/30 07:19:59;;;;;;;9.55;4.13;;;;;;;;;;5019914;28;20018;-80
2023/01/30 07:22:25;;;;;;;11.13;5.32;;;;;;;;;;5017260;28;20092;-81
2023/01/30 07:24:51;;;;;;;13.75;6.13;;;;;;;;;;5028864;28;20044;-81
2023/01/30 07:27:17;;;;;;;8.18;3.55;;;;;;;;;;5032646;28;20029;-82
2023/01/30 07:29:43;;;;;;;12.27;5.00;;;;;;;;;;5030653;28;20057;-80
2023/01/30 07:32:13;;;;;;;8.43;5.45;;;;;;;;;;5030011;28;20103;-81
2023/01/30 07:34:39;;;;;;;9.82;5.38;;;;;;;;;;5033179;28;20029;-80
2023/01/30 07:37:05;;;;;;;10.25;4.20;;;;;;;;;;5029033;28;20531;-83
2023/01/30 07:39:31;;;;;;;6.88;4.35;;;;;;;;;;5030986;28;20587;-82
2023/01/30 07:41:59;;;;;;;9.85;4.47;;;0.60;99.90;;;;;;5029407;28;20038;-79
2023/01/30 07:44:25;;;;;;;8.38;3.88;;;;;;;;;;5023103;28;20072;-80
2023/01/30 07:46:51;;;;;;;10.27;4.88;;;;;;;;;;5030194;28;20029;-83
2023/01/30 07:49:17;;;;;;;9.32;4.57;;;;;;;;;;5025542;28;20030;-80
2023/01/30 07:51:43;;;;;;;9.05;4.43;;;;;;;;;;5032943;28;20029;-79
2023/01/30 07:54:09;;;;;;;11.95;5.50;;;;;;;;;;5026232;28;20079;-79
2023/01/30 07:56:35;;;;;;;10.80;4.78;;;;;;;;;;5021394;28;20080;-79
2023/01/30 07:59:02;;;;;;;5.70;3.85;;;;;;;;;;5024112;28;20039;-80
2023/01/30 08:01:28;;;;;;;14.60;4.45;;;;;;;;;;5025262;28;20064;-79
2023/01/30 08:03:54;;;;;;;9.90;4.45;;;;;;;;;;5031937;28;20489;-79
2023/01/30 08:06:20;;;;;;;13.07;5.05;;;;;;;;;;5023768;28;20502;-80
2023/01/30 08:08:46;;;;;;;9.00;4.60;;;;;;;;;;5028851;28;20526;-79
2023/01/30 08:11:11;;;;;;;10.10;4.35;;;1.30;99.90;;;;;;5028734;28;20026;-80
2023/01/30 08:13:37;;;;;;;6.47;3.60;;;;;;;;;;5027232;28;20035;-82
2023/01/30 08:16:04;;;;;;;9.95;5.40;;;;;;;;;;5028997;28;20022;-81
2023/01/30 08:18:31;;;;;;;9.43;4.10;;;;;;;;;;5023304;28;20148;-81
2023/01/30 08:21:00;;;;;;;7.28;4.97;;;;;;;;;;5022065;28;20026;-81
2023/01/30 08:23:26;;;;;;;8.20;3.92;;;;;;;;;;5016635;28;20083;-80
2023/01/30 08:25:56;;;;;;;6.10;3.88;;;;;;;;;;5026754;28;20029;-80
2023/01/30 08:28:22;;;;;;;9.05;3.75;;;;;;;;;;5024144;28;20030;-82
2023/01/30 08:30:48;;;;;;;9.77;4.68;;;;;;;;;;5025111;28;20421;-81
2023/01/30 08:33:15;;;;;;;13.73;5.18;;;;;;;;;;5019739;28;20018;-80
2023/01/30 08:35:41;;;;;;;5.97;3.03;;;;;;;;;;5027619;28;20025;-80
2023/01/30 08:38:10;;;;;;;7.95;3.65;;;;;;;;;;5024361;28;20033;-79
2023/01/30 08:40:36;;;;;;;7.75;3.65;;;;;;;;;;5022937;28;20036;-81
2023/01/30 08:43:03;;;;;;;10.23;5.32;;;;;;;;;;5022976;28;20485;-81
2023/01/30 08:45:28;;;;;;;11.30;4.00;;;;;;;;;;5023776;28;20037;-79
2023/01/30 08:48:01;;;;;;;8.32;3.90;;;;;;;;;;5025781;28;20429;-79
2023/01/30 08:50:27;;;;;;;6.40;4.32;;;;;;;;;;5025583;28;20053;-79
2023/01/30 08:52:53;;;;;;;6.32;3.40;;;;;;;;;;5022535;28;20075;-79
2023/01/30 08:55:19;;;;;;;6.30;2.65;;;;;;;;;;5021005;28;20480;-81
2023/01/30 08:57:45;;;;;;;4.65;2.80;;;;;;;;;;5025636;28;20036;-81
2023/01/30 09:00:12;;;;;;;6.43;3.72;;;;;;;;;;5021045;28;20532;-81
2023/01/30 09:02:38;;;;;;;5.80;3.53;;;;;;;;;;5021758;28;20509;-80
2023/01/30 09:05:05;;;;;;;9.05;3.20;;;;;;;;;;5024164;28;20342;-80
2023/01/30 09:07:31;;;;;;;5.93;2.90;;;;;;;;;;5030627;28;20033;-79
2023/01/30 09:09:57;;;;;;;6.63;2.63;;;;;;;;;;5015206;28;20021;-81
2023/01/30 09:12:23;;;;;;;4.20;2.47;;;;;;;;;;5017953;28;20037;-81
2023/01/30 09:14:51;;;;;;;5.90;3.25;;;;;;;;;;5024307;28;20064;-81
2023/01/30 09:17:17;;;;;;;9.45;3.38;;;;;;;;;;5028310;28;20033;-81
2023/01/30 09:19:43;;;;;;;8.10;3.85;;;;;;;;;;5026572;28;20558;-81
2023/01/30 09:22:09;;;;;;;5.97;2.97;;;;;;;;;;5023743;28;20038;-80
2023/01/30 09:24:35;;;;;;;4.72;2.88;;;;;;;;;;5029766;28;20036;-80
2023/01/30 09:27:01;;;;;;;5.72;3.15;;;;;;;;;;5023684;28;20500;-79
2023/01/30 09:29:28;;;;;;;7.03;2.40;;;;;;;;;;5029468;28;20452;-80
2023/01/30 09:31:55;;;;;;;6.70;2.50;;;;;;;;;;5021525;28;20112;-80
2023/01/30 09:34:26;;;;;;;3.58;1.98;;;;;;;;;;5029377;28;20037;-80
2023/01/30 09:36:52;;;;;;;6.78;3.55;;;;;;;;;;5023214;28;20083;-80
2023/01/30 09:39:18;;;;;;;3.47;2.03;;;;;;;;;;5028348;28;20033;-79
2023/01/30 09:41:57;;;;;;;5.07;2.60;;;;;;;;;;5024102;28;20028;-79
2023/01/30 09:44:47;;;;;;;5.35;2.50;;;2.10;99.90;;;;;;5023612;28;20053;-79
2023/01/30 09:47:17;;;;;;;3.05;2.20;;;;;;;;;;5025481;28;20112;-79
2023/01/30 09:49:43;;;;;;;5.47;1.95;;;;;;;;;;5024925;28;20567;-79
2023/01/30 09:52:08;;;;;;;3.40;2.00;;;;;;;;;;5027120;28;20033;-79
2023/01/30 09:54:41;;;;;;;5.47;2.55;;;1.70;99.90;;;;;;5030062;28;20025;-79
2023/01/30 09:57:07;;;;;;;5.38;1.98;;;;;;;;;;5026651;28;20223;-79
2023/01/30 09:59:46;;;;;;;5.95;2.78;;;;;;;;;;5028412;28;20121;-79
2023/01/30 10:02:21;;;;;;;4.45;2.13;;;;;;;;;;5022184;28;20448;-80
2023/01/30 10:04:48;;;;;;;4.90;2.80;;;;;;;;;;5026792;28;20028;-78
2023/01/30 10:07:28;;;;;;;4.45;1.77;;;;;;;;;;5030265;28;20041;-79
2023/01/30 10:09:54;;;;;;;3.80;2.45;;;;;;;;;;5029632;28;20026;-79
2023/01/30 10:12:39;;;;;;;10.50;3.10;;;;;;;;;;5032315;28;20047;-79
2023/01/30 10:15:05;;;;;;;8.40;2.22;;;;;;;;;;5029689;28;20036;-79
2023/01/30 10:17:35;;;;;;;8.40;3.33;;;;;;;;;;5025285;28;20021;-80
2023/01/30 10:20:28;;;;;;;6.20;2.10;;;;;;;;;;5027327;28;20121;-80
2023/01/30 10:22:54;;;;;;;5.78;2.50;;;;;;;;;;5025285;28;20149;-78
2023/01/30 10:25:29;;;;;;;5.95;2.50;;;1.90;99.90;;;;;;5024202;28;20615;-81
2023/01/30 10:28:01;;;;;;;7.30;2.90;;;;;;;;;;5030706;28;20041;-78
2023/01/30 10:30:27;;;;;;;5.43;2.78;;;;;;;;;;5026512;28;20026;-79
2023/01/30 10:32:56;;;;;;;4.90;2.75;;;;;;;;;;5026507;28;20029;-79
2023/01/30 10:35:24;;;;;;;4.10;2.17;;;;;;;;;;5022610;28;20026;-79
2023/01/30 10:37:58;;;;;;;4.70;2.50;;;;;;;;;;5023503;28;20069;-80
2023/01/30 10:40:28;;;;;;;10.13;2.67;;;;;;;;;;5026136;28;20025;-80
2023/01/30 10:43:00;;;;;;;3.75;2.17;;;;;;;;;;5031103;28;20041;-80
2023/01/30 10:45:46;;;;;;;5.05;2.15;;;;;;;;;;5029269;28;20420;-80
2023/01/30 10:48:21;;;;;;;4.95;2.70;;;;;;;;;;5028113;28;20033;-79
2023/01/30 10:50:52;;;;;;;3.90;2.20;;;;;;;;;;5023282;28;20634;-80
2023/01/30 10:53:32;;;;;;;9.57;4.38;;;;;;;;;;5029733;28;20091;-80
2023/01/30 10:56:05;;;;;;;8.32;4.43;;;;;;;;;;5028909;28;20033;-81
2023/01/30 10:58:51;;;;;;;7.07;3.25;;;;;;;;;;5031440;28;20026;-79
2023/01/30 11:01:24;;;;;;;3.75;3.05;;;2.10;99.90;;;;;;5018424;28;20061;-79
2023/01/30 11:04:00;;;;;;;6.10;3.05;;;;;;;;;;5025074;28;20066;-79
2023/01/30 11:06:26;;;;;;;7.75;3.05;;;;;;;;;;5029332;28;20029;-80
2023/01/30 11:08:53;;;;;;;7.10;2.60;;;;;;;;;;5028203;28;20032;-79
2023/01/30 11:11:29;;;;;;;7.53;3.53;;;2.30;99.90;;;;;;5025391;28;20740;-80
2023/01/30 11:14:01;;;;;;;7.78;3.10;;;;;;;;;;5028404;28;20049;-79
2023/01/30 11:16:27;;;;;;;5.75;2.20;;;;;;;;;;5024536;28;20111;-78
2023/01/30 11:18:57;;;;;;;4.32;2.10;;;;;;;;;;5019639;28;20044;-78
2023/01/30 11:21:25;;;;;;;4.53;2.75;;;;;;;;;;5023569;28;20064;-79
2023/01/30 11:23:51;;;;;;;6.18;3.33;;;;;;;;;;5031675;28;20087;-78
2023/01/30 11:26:19;;;;;;;4.80;3.22;;;;;;;;;;5024559;28;20068;-79
2023/01/30 11:28:45;;;;;;;5.55;2.20;;;;;;;;;;5027747;28;20038;-80
2023/01/30 11:31:24;;;;;;;6.32;3.03;;;;;;;;;;5026266;28;20064;-80
2023/01/30 11:34:00;;;;;;;7.18;3.15;;;;;;;;;;5028707;28;20381;-80
2023/01/30 11:36:29;;;;;;;3.55;2.28;;;2.20;99.90;;;;;;5028169;28;20090;-80
2023/01/30 11:38:59;;;;;;;4.20;2.63;;;;;;;;;;5025456;28;20021;-79
2023/01/30 11:41:25;;;;;;;7.40;3.13;;;;;;;;;;5026535;28;20029;-77
2023/01/30 11:43:58;;;;;;;8.70;4.00;;;;;;;;;;5025302;28;20041;-81
2023/01/30 11:46:24;;;;;;;;;;;;;;;;;;5024434;28;20432;-78
2023/01/30 11:48:52;;;;;;;10.65;4.43;;;;;;;;;;5026888;28;19908;-80
2023/01/30 11:51:19;;;;;;;6.07;3.42;;;;;;;;;;5029845;28;20064;-79
2023/01/30 11:53:47;;;;;;;8.25;2.83;;;;;;;;;;5027062;28;20022;-81
2023/01/30 11:56:22;;;;;;;6.90;3.78;;;;;;;;;;5025361;28;20043;-80
2023/01/30 11:59:08;;;;;;;8.65;3.70;;;;;;;;;;5027702;28;20064;-81
2023/01/30 12:01:35;;;;;;;8.90;3.90;;;2.30;99.90;;;;;;5018464;28;20042;-80
2023/01/30 12:04:06;;;;;;;5.63;2.72;;;;;;;;;;5025898;28;20053;-79
2023/01/30 12:06:33;;;;;;;8.50;3.42;;;;;;;;;;5028185;28;20116;-78
2023/01/30 12:08:59;;;;;;;7.70;3.67;;;;;;;;;;5029642;28;20052;-80
2023/01/30 12:11:41;;;;;;;10.93;4.93;;;;;;;;;;5024127;28;20022;-80
2023/01/30 12:14:13;;;;;;;7.38;3.45;;;;;;;;;;5023494;28;20030;-79
2023/01/30 12:17:18;;;;;;;7.30;3.58;;;2.30;99.90;;;;;;5025835;28;20028;-81
2023/01/30 12:20:02;;;;;;;12.55;5.10;;;;;;;;;;5027522;28;20037;-80
2023/01/30 12:22:35;;;;;;;5.93;2.63;;;;;;;;;;5031508;28;20042;-81
2023/01/30 12:25:02;;;;;;;5.40;3.83;;;;;;;;;;5024202;28;20333;-79
2023/01/30 12:27:31;;;;;;;7.80;3.55;;;;;;;;;;5021549;28;20620;-80
2023/01/30 12:29:57;;;;;;;8.70;3.55;;;;;;;;;;5026166;28;20110;-80
2023/01/30 12:32:26;;;;;;;14.25;5.00;;;;;;;;;;5022630;28;20033;-79
2023/01/30 12:34:52;;;;;;;8.52;3.55;;;;;;;;;;5019677;28;20432;-78
2023/01/30 12:37:24;;;;;;;7.60;4.28;;;;;;;;;;5026660;28;20021;-79
2023/01/30 12:39:53;;;;;;;11.48;4.85;;;;;;;;;;5024895;28;20491;-80
2023/01/30 12:42:19;;;;;;;10.43;4.55;;;;;;;;;;5023490;28;20064;-79
2023/01/30 12:44:48;;;;;;;11.57;5.25;;;;;;;;;;5027994;28;21011;-80
2023/01/30 12:47:13;;;;;;;10.20;4.03;;;;;;;;;;5026894;28;20432;-81
2023/01/30 12:49:57;;;;;;;10.82;4.32;;;;;;;;;;5024861;28;20100;-81
2023/01/30 12:52:24;;;;;;;;;;;;;;;;;;5027408;28;20090;-80
2023/01/30 12:54:59;;;;;;;5.07;3.30;;;;;;;;;;5027840;28;19917;-79
2023/01/30 12:57:33;;;;;;;8.20;4.18;;;2.30;99.90;;;;;;5024857;28;20171;-81
2023/01/30 13:00:02;;;;;;;12.07;4.55;;;;;;;;;;5027076;28;20060;-81
2023/01/30 13:02:31;;;;;;;8.48;3.03;;;;;;;;;;5025001;28;20378;-82
2023/01/30 13:05:00;;;;;;;7.88;4.45;;;;;;;;;;5026466;28;20028;-81
2023/01/30 13:07:30;;;;;;;9.60;4.28;;;;;;;;;;5023166;28;20029;-80
2023/01/30 13:09:59;;;;;;;5.55;2.83;;;;;;;;;;5026903;28;20025;-79
2023/01/30 13:12:42;;;;;;;4.80;2.35;;;;;;;;;;5022481;28;20058;-79
2023/01/30 13:15:24;;;;;;;6.38;3.58;;;;;;;;;;5024623;28;20212;-82
2023/01/30 13:17:49;;;;;;;4.72;2.88;;;;;;;;;;5024084;28;20044;-81
2023/01/30 13:20:18;;;;;;;8.23;3.33;;;;;;;;;;5021432;28;20037;-78
2023/01/30 13:22:56;;;;;;;5.90;3.65;;;;;;;;;;5024869;28;20101;-77
2023/01/30 13:25:21;;;;;;;6.07;3.95;;;;;;;;;;5026495;28;20033;-79
2023/01/30 13:27:54;;;;;;;8.43;3.05;;;;;;;;;;5030121;28;20029;-78
2023/01/30 13:30:24;;;;;;;7.47;3.20;;;;;;;;;;5026388;28;20487;-80
2023/01/30 13:32:51;;;;;;;9.32;3.50;;;;;;;;;;5027476;28;20401;-81
2023/01/30 13:35:24;;;;;;;6.82;3.45;;;;;;;;;;5027126;28;20116;-80
2023/01/30 13:37:50;;;;;;;8.05;4.20;;;;;;;;;;5023646;28;20021;-83
2023/01/30 13:40:23;;;;;;;5.97;3.17;;;;;;;;;;5025749;28;20033;-81
2023/01/30 13:42:56;;;;;;;10.73;4.90;;;;;;;;;;5019684;28;20184;-81
2023/01/30 13:45:23;;;;;;;7.30;2.63;;;;;;;;;;5025536;28;21941;-81
2023/01/30 13:48:02;;;;;;;5.93;2.75;;;;;;;;;;5026060;28;20049;-80
2023/01/30 13:50:28;;;;;;;4.80;3.17;;;;;;;;;;5021386;28;20056;-79
2023/01/30 13:53:07;;;;;;;5.15;2.72;;;3.70;99.90;;;;;;5019974;28;20022;-79
2023/01/30 13:55:44;;;;;;;7.70;3.65;;;;;;;;;;5025325;28;20529;-79
2023/01/30 13:58:10;;;;;;;4.95;2.92;;;;;;;;;;5027871;28;20044;-79
2023/01/30 14:00:36;;;;;;;7.47;2.63;;;;;;;;;;5027293;28;20026;-80
2023/01/30 14:03:02;;;;;;;5.90;3.03;;;;;;;;;;5024020;28;20037;-81
2023/01/30 14:05:47;;;;;;;6.75;2.90;;;;;;;;;;5028181;28;20603;-81
2023/01/30 14:08:17;;;;;;;6.07;3.72;;;;;;;;;;5022409;28;20703;-79
2023/01/30 14:10:43;;;;;;;9.13;4.88;;;;;;;;;;5024251;28;20064;-80
2023/01/30 14:13:12;;;;;;;8.98;3.13;;;;;;;;;;5017020;28;20037;-80
2023/01/30 14:15:40;;;;;;;7.32;3.70;;;;;;;;;;5028321;28;20044;-79
2023/01/30 14:18:17;;;;;;;5.53;3.42;;;;;;;;;;5018507;28;20037;-80
2023/01/30 14:20:45;;;;;;;7.15;2.92;;;;;;;;;;5024796;28;20044;-79
2023/01/30 14:23:29;;;;;;;6.13;3.03;;;;;;;;;;5020488;28;20040;-78
2023/01/30 14:25:55;;;;;;;6.47;3.80;;;;;;;;;;5019061;28;20033;-79
2023/01/30 14:28:21;;;;;;;7.18;3.92;;;;;;;;;;5028314;28;20037;-79
2023/01/30 14:30:51;;;;;;;4.93;3.13;;;;;;;;;;5026546;28;20040;-81
2023/01/30 14:33:20;;;;;;;14.98;6.93;;;;;;;;;;5019192;28;20044;-78
2023/01/30 14:35:47;;;;;;;9.75;4.80;;;;;;;;;;5025641;28;20037;-79
2023/01/30 14:38:13;;;;;;;5.82;3.53;;;;;;;;;;5019028;28;20025;-80
2023/01/30 14:40:40;;;;;;;6.80;3.55;;;;;;;;;;5024011;28;20568;-81
2023/01/30 14:43:15;;;;;;;9.60;3.67;;;;;;;;;;5023898;28;20386;-79
2023/01/30 14:45:47;;;;;;;6.38;3.47;;;;;;;;;;5024623;28;20025;-80
2023/01/30 14:48:32;;;;;;;6.65;3.70;;;;;;;;;;5025019;28;20424;-81
2023/01/30 14:51:36;;;;;;;5.05;3.30;;;2.40;99.90;;;;;;5029283;28;20123;-80
2023/01/30 14:54:08;;;;;;;6.25;3.95;;;;;;;;;;5031463;28;20060;-81
2023/01/30 14:56:53;;;;;;;10.90;3.53;;;;;;;;;;5032824;28;20033;-79
2023/01/30 14:59:23;;;;;;;5.65;2.70;;;;;;;;;;5027024;28;20084;-78
2023/01/30 15:02:04;;;;;;;9.63;4.32;;;;;;;;;;5031798;28;20037;-80
2023/01/30 15:04:48;;;;;;;7.75;3.75;;;;;;;;;;5024428;28;20049;-79